sensor_id;sensor_type;location;lat;lon;timestamp;P1;durP1;ratioP1;P2;durP2;ratioP2
1382;SDS011;685;47.196;11.880;2022-12-11T00:00:35;2.50;;;2.27;;
1382;SDS011;685;47.196;11.880;2022-12-11T00:03:02;4.80;;;3.00;;
1382;SDS011;685;47.196;11.880;2022-12-11T00:05:29;6.33;;;3.53;;
1382;SDS011;685;47.196;11.880;2022-12-11T00:07:56;4.60;;;3.83;;
1382;SDS011;685;47.196;11.880;2022-12-11T00:10:24;3.50;;;3.20;;
1382;SDS011;685;47.196;11.880;2022-12-11T00:12:51;7.53;;;5.07;;
1382;SDS011;685;47.196;11.880;2022-12-11T00:15:18;7.87;;;4.83;;
1382;SDS011;685;47.196;11.880;2022-12-11T00:17:45;5.90;;;4.60;;
1382;SDS011;685;47.196;11.880;2022-12-11T00:20:12;6.00;;;4.77;;
1382;SDS011;685;47.196;11.880;2022-12-11T00:22:39;6.13;;;5.10;;
1382;SDS011;685;47.196;11.880;2022-12-11T00:25:06;5.57;;;5.00;;
1382;SDS011;685;47.196;11.880;2022-12-11T00:27:35;7.73;;;5.00;;
1382;SDS011;685;47.196;11.880;2022-12-11T00:30:02;7.03;;;5.80;;
1382;SDS011;685;47.196;11.880;2022-12-11T00:32:29;5.10;;;4.60;;
1382;SDS011;685;47.196;11.880;2022-12-11T00:34:56;7.37;;;5.20;;
1382;SDS011;685;47.196;11.880;2022-12-11T00:37:23;5.33;;;4.63;;
1382;SDS011;685;47.196;11.880;2022-12-11T00:39:50;5.60;;;5.10;;
1382;SDS011;685;47.196;11.880;2022-12-11T00:42:17;9.73;;;5.43;;
1382;SDS011;685;47.196;11.880;2022-12-11T00:44:45;5.50;;;4.90;;
1382;SDS011;685;47.196;11.880;2022-12-11T00:47:12;5.93;;;5.30;;
1382;SDS011;685;47.196;11.880;2022-12-11T00:49:39;4.80;;;4.17;;
1382;SDS011;685;47.196;11.880;2022-12-11T00:52:06;4.97;;;4.50;;
1382;SDS011;685;47.196;11.880;2022-12-11T00:54:33;5.93;;;5.33;;
1382;SDS011;685;47.196;11.880;2022-12-11T00:57:00;4.90;;;3.97;;
1382;SDS011;685;47.196;11.880;2022-12-11T00:59:27;5.50;;;4.53;;
1382;SDS011;685;47.196;11.880;2022-12-11T01:01:55;4.80;;;4.40;;
1382;SDS011;685;47.196;11.880;2022-12-11T01:04:22;6.77;;;5.30;;
1382;SDS011;685;47.196;11.880;2022-12-11T01:06:49;5.50;;;5.00;;
1382;SDS011;685;47.196;11.880;2022-12-11T01:09:16;5.00;;;4.37;;
1382;SDS011;685;47.196;11.880;2022-12-11T01:12:00;6.90;;;4.87;;
1382;SDS011;685;47.196;11.880;2022-12-11T01:14:27;5.43;;;4.47;;
1382;SDS011;685;47.196;11.880;2022-12-11T01:16:53;9.33;;;5.20;;
1382;SDS011;685;47.196;11.880;2022-12-11T01:19:22;6.23;;;4.30;;
1382;SDS011;685;47.196;11.880;2022-12-11T01:21:49;6.57;;;4.50;;
1382;SDS011;685;47.196;11.880;2022-12-11T01:24:16;6.60;;;4.70;;
1382;SDS011;685;47.196;11.880;2022-12-11T01:26:42;6.50;;;4.70;;
1382;SDS011;685;47.196;11.880;2022-12-11T01:29:09;8.57;;;5.40;;
1382;SDS011;685;47.196;11.880;2022-12-11T01:31:36;7.60;;;4.80;;
1382;SDS011;685;47.196;11.880;2022-12-11T01:34:04;6.83;;;5.13;;
1382;SDS011;685;47.196;11.880;2022-12-11T01:36:31;8.40;;;5.67;;
1382;SDS011;685;47.196;11.880;2022-12-11T01:38:58;7.90;;;4.80;;
1382;SDS011;685;47.196;11.880;2022-12-11T01:41:25;5.90;;;4.83;;
1382;SDS011;685;47.196;11.880;2022-12-11T01:43:55;7.47;;;5.57;;
1382;SDS011;685;47.196;11.880;2022-12-11T01:46:26;6.63;;;4.77;;
1382;SDS011;685;47.196;11.880;2022-12-11T01:48:54;7.23;;;6.27;;
1382;SDS011;685;47.196;11.880;2022-12-11T01:51:22;10.93;;;6.80;;
1382;SDS011;685;47.196;11.880;2022-12-11T01:53:50;9.07;;;5.53;;
1382;SDS011;685;47.196;11.880;2022-12-11T01:56:22;8.70;;;5.77;;
1382;SDS011;685;47.196;11.880;2022-12-11T01:58:51;7.33;;;4.97;;
1382;SDS011;685;47.196;11.880;2022-12-11T02:01:21;7.30;;;5.73;;
1382;SDS011;685;47.196;11.880;2022-12-11T02:03:53;8.13;;;6.10;;
1382;SDS011;685;47.196;11.880;2022-12-11T02:06:31;8.27;;;5.57;;
1382;SDS011;685;47.196;11.880;2022-12-11T02:09:00;6.73;;;5.17;;
1382;SDS011;685;47.196;11.880;2022-12-11T02:11:29;7.17;;;6.30;;
1382;SDS011;685;47.196;11.880;2022-12-11T02:14:05;6.23;;;5.20;;
1382;SDS011;685;47.196;11.880;2022-12-11T02:16:40;10.00;;;6.23;;
1382;SDS011;685;47.196;11.880;2022-12-11T02:19:15;7.77;;;4.80;;
1382;SDS011;685;47.196;11.880;2022-12-11T02:21:56;9.33;;;5.77;;
1382;SDS011;685;47.196;11.880;2022-12-11T02:24:26;7.90;;;6.00;;
1382;SDS011;685;47.196;11.880;2022-12-11T02:30:00;6.73;;;5.43;;
1382;SDS011;685;47.196;11.880;2022-12-11T02:32:30;6.87;;;5.57;;
1382;SDS011;685;47.196;11.880;2022-12-11T02:35:04;7.50;;;6.00;;
1382;SDS011;685;47.196;11.880;2022-12-11T02:37:36;9.77;;;6.60;;
1382;SDS011;685;47.196;11.880;2022-12-11T02:40:08;7.90;;;5.70;;
1382;SDS011;685;47.196;11.880;2022-12-11T02:42:39;8.37;;;7.03;;
1382;SDS011;685;47.196;11.880;2022-12-11T02:45:10;9.30;;;5.80;;
1382;SDS011;685;47.196;11.880;2022-12-11T02:47:38;7.70;;;5.50;;
1382;SDS011;685;47.196;11.880;2022-12-11T02:50:08;8.17;;;5.60;;
1382;SDS011;685;47.196;11.880;2022-12-11T02:52:38;10.40;;;6.30;;
1382;SDS011;685;47.196;11.880;2022-12-11T02:55:08;8.57;;;6.07;;
1382;SDS011;685;47.196;11.880;2022-12-11T02:57:38;8.20;;;5.40;;
1382;SDS011;685;47.196;11.880;2022-12-11T03:00:11;8.20;;;5.80;;
1382;SDS011;685;47.196;11.880;2022-12-11T03:02:38;8.00;;;6.10;;
1382;SDS011;685;47.196;11.880;2022-12-11T03:05:06;9.03;;;6.30;;
1382;SDS011;685;47.196;11.880;2022-12-11T03:07:35;8.10;;;6.00;;
1382;SDS011;685;47.196;11.880;2022-12-11T03:10:04;11.30;;;6.50;;
1382;SDS011;685;47.196;11.880;2022-12-11T03:12:33;12.67;;;6.70;;
1382;SDS011;685;47.196;11.880;2022-12-11T03:15:04;11.87;;;7.90;;
1382;SDS011;685;47.196;11.880;2022-12-11T03:17:37;7.87;;;6.83;;
1382;SDS011;685;47.196;11.880;2022-12-11T03:20:11;7.67;;;6.27;;
1382;SDS011;685;47.196;11.880;2022-12-11T03:22:52;9.40;;;6.13;;
1382;SDS011;685;47.196;11.880;2022-12-11T03:25:25;9.83;;;7.27;;
1382;SDS011;685;47.196;11.880;2022-12-11T03:27:57;8.50;;;6.60;;
1382;SDS011;685;47.196;11.880;2022-12-11T03:30:30;10.77;;;7.37;;
1382;SDS011;685;47.196;11.880;2022-12-11T03:33:03;9.47;;;7.73;;
1382;SDS011;685;47.196;11.880;2022-12-11T03:35:34;11.53;;;7.57;;
1382;SDS011;685;47.196;11.880;2022-12-11T03:38:06;11.13;;;8.37;;
1382;SDS011;685;47.196;11.880;2022-12-11T03:40:36;10.83;;;7.50;;
1382;SDS011;685;47.196;11.880;2022-12-11T03:43:05;10.03;;;7.70;;
1382;SDS011;685;47.196;11.880;2022-12-11T03:45:32;12.73;;;8.30;;
1382;SDS011;685;47.196;11.880;2022-12-11T03:48:00;11.57;;;8.60;;
1382;SDS011;685;47.196;11.880;2022-12-11T03:50:31;10.00;;;7.37;;
1382;SDS011;685;47.196;11.880;2022-12-11T03:53:00;11.07;;;8.17;;
1382;SDS011;685;47.196;11.880;2022-12-11T03:55:29;11.20;;;8.23;;
1382;SDS011;685;47.196;11.880;2022-12-11T03:57:58;10.80;;;8.27;;
1382;SDS011;685;47.196;11.880;2022-12-11T04:00:25;9.70;;;8.37;;
1382;SDS011;685;47.196;11.880;2022-12-11T04:02:53;12.63;;;9.07;;
1382;SDS011;685;47.196;11.880;2022-12-11T04:05:39;12.87;;;7.80;;
1382;SDS011;685;47.196;11.880;2022-12-11T04:08:07;11.40;;;8.30;;
1382;SDS011;685;47.196;11.880;2022-12-11T04:10:35;12.33;;;8.93;;
1382;SDS011;685;47.196;11.880;2022-12-11T04:13:01;10.00;;;7.87;;
1382;SDS011;685;47.196;11.880;2022-12-11T04:15:28;9.73;;;7.87;;
1382;SDS011;685;47.196;11.880;2022-12-11T04:17:54;10.87;;;8.13;;
1382;SDS011;685;47.196;11.880;2022-12-11T04:20:55;12.53;;;8.40;;
1382;SDS011;685;47.196;11.880;2022-12-11T04:23:53;13.03;;;9.50;;
1382;SDS011;685;47.196;11.880;2022-12-11T04:26:37;12.70;;;8.07;;
1382;SDS011;685;47.196;11.880;2022-12-11T04:29:04;11.17;;;8.03;;
1382;SDS011;685;47.196;11.880;2022-12-11T04:31:31;13.43;;;9.40;;
1382;SDS011;685;47.196;11.880;2022-12-11T04:33:58;14.67;;;9.97;;
1382;SDS011;685;47.196;11.880;2022-12-11T04:36:26;13.03;;;8.60;;
1382;SDS011;685;47.196;11.880;2022-12-11T04:38:53;14.23;;;9.47;;
1382;SDS011;685;47.196;11.880;2022-12-11T04:41:20;14.80;;;9.97;;
1382;SDS011;685;47.196;11.880;2022-12-11T04:43:47;14.00;;;8.53;;
1382;SDS011;685;47.196;11.880;2022-12-11T04:46:14;15.20;;;10.30;;
1382;SDS011;685;47.196;11.880;2022-12-11T04:48:42;15.03;;;9.63;;
1382;SDS011;685;47.196;11.880;2022-12-11T04:51:10;12.73;;;9.47;;
1382;SDS011;685;47.196;11.880;2022-12-11T04:53:38;12.27;;;10.20;;
1382;SDS011;685;47.196;11.880;2022-12-11T04:56:06;15.50;;;10.70;;
1382;SDS011;685;47.196;11.880;2022-12-11T04:58:35;14.63;;;9.80;;
1382;SDS011;685;47.196;11.880;2022-12-11T05:01:05;15.17;;;11.20;;
1382;SDS011;685;47.196;11.880;2022-12-11T05:03:33;16.33;;;9.90;;
1382;SDS011;685;47.196;11.880;2022-12-11T05:06:00;13.70;;;9.93;;
1382;SDS011;685;47.196;11.880;2022-12-11T05:08:27;19.83;;;11.63;;
1382;SDS011;685;47.196;11.880;2022-12-11T05:10:55;17.70;;;12.00;;
1382;SDS011;685;47.196;11.880;2022-12-11T05:13:23;19.70;;;11.70;;
1382;SDS011;685;47.196;11.880;2022-12-11T05:15:51;15.60;;;11.10;;
1382;SDS011;685;47.196;11.880;2022-12-11T05:18:18;18.13;;;10.30;;
1382;SDS011;685;47.196;11.880;2022-12-11T05:20:53;13.97;;;10.43;;
1382;SDS011;685;47.196;11.880;2022-12-11T05:23:20;13.17;;;9.73;;
1382;SDS011;685;47.196;11.880;2022-12-11T05:25:50;17.27;;;10.97;;
1382;SDS011;685;47.196;11.880;2022-12-11T05:28:19;15.40;;;10.43;;
1382;SDS011;685;47.196;11.880;2022-12-11T05:30:46;14.33;;;10.83;;
1382;SDS011;685;47.196;11.880;2022-12-11T05:33:13;17.43;;;10.70;;
1382;SDS011;685;47.196;11.880;2022-12-11T05:35:45;12.07;;;9.47;;
1382;SDS011;685;47.196;11.880;2022-12-11T05:38:13;14.23;;;10.73;;
1382;SDS011;685;47.196;11.880;2022-12-11T05:40:39;17.90;;;12.20;;
1382;SDS011;685;47.196;11.880;2022-12-11T05:43:06;13.50;;;9.53;;
1382;SDS011;685;47.196;11.880;2022-12-11T05:45:35;16.60;;;12.20;;
1382;SDS011;685;47.196;11.880;2022-12-11T05:48:03;19.60;;;13.90;;
1382;SDS011;685;47.196;11.880;2022-12-11T05:50:30;17.50;;;11.33;;
1382;SDS011;685;47.196;11.880;2022-12-11T05:52:57;19.33;;;12.50;;
1382;SDS011;685;47.196;11.880;2022-12-11T05:55:23;18.07;;;12.20;;
1382;SDS011;685;47.196;11.880;2022-12-11T05:57:50;15.77;;;10.50;;
1382;SDS011;685;47.196;11.880;2022-12-11T06:00:17;18.67;;;12.00;;
1382;SDS011;685;47.196;11.880;2022-12-11T06:02:45;16.63;;;11.57;;
1382;SDS011;685;47.196;11.880;2022-12-11T06:05:12;12.17;;;9.70;;
1382;SDS011;685;47.196;11.880;2022-12-11T06:07:39;14.97;;;10.93;;
1382;SDS011;685;47.196;11.880;2022-12-11T06:10:06;16.80;;;11.47;;
1382;SDS011;685;47.196;11.880;2022-12-11T06:12:34;15.63;;;11.57;;
1382;SDS011;685;47.196;11.880;2022-12-11T06:15:01;14.30;;;10.60;;
1382;SDS011;685;47.196;11.880;2022-12-11T06:17:29;13.87;;;9.20;;
1382;SDS011;685;47.196;11.880;2022-12-11T06:19:57;17.97;;;10.80;;
1382;SDS011;685;47.196;11.880;2022-12-11T06:22:24;14.97;;;8.83;;
1382;SDS011;685;47.196;11.880;2022-12-11T06:24:50;14.97;;;10.37;;
1382;SDS011;685;47.196;11.880;2022-12-11T06:27:17;15.37;;;10.13;;
1382;SDS011;685;47.196;11.880;2022-12-11T06:29:45;16.63;;;11.47;;
1382;SDS011;685;47.196;11.880;2022-12-11T06:32:12;13.30;;;9.03;;
1382;SDS011;685;47.196;11.880;2022-12-11T06:34:38;13.47;;;9.50;;
1382;SDS011;685;47.196;11.880;2022-12-11T06:37:07;16.70;;;9.87;;
1382;SDS011;685;47.196;11.880;2022-12-11T06:39:33;15.50;;;11.40;;
1382;SDS011;685;47.196;11.880;2022-12-11T06:42:00;15.07;;;10.13;;
1382;SDS011;685;47.196;11.880;2022-12-11T06:44:27;14.63;;;9.10;;
1382;SDS011;685;47.196;11.880;2022-12-11T06:46:54;17.23;;;10.73;;
1382;SDS011;685;47.196;11.880;2022-12-11T06:49:21;17.40;;;10.50;;
1382;SDS011;685;47.196;11.880;2022-12-11T06:51:48;13.33;;;9.13;;
1382;SDS011;685;47.196;11.880;2022-12-11T06:54:16;13.57;;;8.70;;
1382;SDS011;685;47.196;11.880;2022-12-11T06:56:43;14.03;;;10.40;;
1382;SDS011;685;47.196;11.880;2022-12-11T06:59:10;14.93;;;9.87;;
1382;SDS011;685;47.196;11.880;2022-12-11T07:01:37;15.83;;;11.47;;
1382;SDS011;685;47.196;11.880;2022-12-11T07:04:04;12.83;;;10.10;;
1382;SDS011;685;47.196;11.880;2022-12-11T07:06:31;34.30;;;21.60;;
1382;SDS011;685;47.196;11.880;2022-12-11T07:08:58;37.80;;;21.40;;
1382;SDS011;685;47.196;11.880;2022-12-11T07:11:26;31.57;;;19.60;;
1382;SDS011;685;47.196;11.880;2022-12-11T07:13:53;29.77;;;16.97;;
1382;SDS011;685;47.196;11.880;2022-12-11T07:16:20;17.03;;;12.03;;
1382;SDS011;685;47.196;11.880;2022-12-11T07:18:47;17.00;;;10.07;;
1382;SDS011;685;47.196;11.880;2022-12-11T07:21:16;11.47;;;9.57;;
1382;SDS011;685;47.196;11.880;2022-12-11T07:23:43;16.17;;;11.10;;
1382;SDS011;685;47.196;11.880;2022-12-11T07:26:11;18.57;;;9.30;;
1382;SDS011;685;47.196;11.880;2022-12-11T07:28:41;11.33;;;10.13;;
1382;SDS011;685;47.196;11.880;2022-12-11T07:31:08;11.73;;;9.43;;
1382;SDS011;685;47.196;11.880;2022-12-11T07:33:36;14.70;;;10.30;;
1382;SDS011;685;47.196;11.880;2022-12-11T07:36:04;13.23;;;10.87;;
1382;SDS011;685;47.196;11.880;2022-12-11T07:38:33;12.10;;;10.07;;
1382;SDS011;685;47.196;11.880;2022-12-11T07:41:00;16.57;;;10.30;;
1382;SDS011;685;47.196;11.880;2022-12-11T07:43:27;13.80;;;9.73;;
1382;SDS011;685;47.196;11.880;2022-12-11T07:45:58;14.20;;;9.17;;
1382;SDS011;685;47.196;11.880;2022-12-11T07:48:26;14.47;;;9.23;;
1382;SDS011;685;47.196;11.880;2022-12-11T07:50:53;13.67;;;10.33;;
1382;SDS011;685;47.196;11.880;2022-12-11T07:53:19;16.47;;;10.03;;
1382;SDS011;685;47.196;11.880;2022-12-11T07:55:46;15.20;;;10.07;;
1382;SDS011;685;47.196;11.880;2022-12-11T07:58:13;14.43;;;9.40;;
1382;SDS011;685;47.196;11.880;2022-12-11T08:00:40;14.70;;;12.97;;
1382;SDS011;685;47.196;11.880;2022-12-11T08:03:10;14.20;;;10.07;;
1382;SDS011;685;47.196;11.880;2022-12-11T08:05:37;16.80;;;9.83;;
1382;SDS011;685;47.196;11.880;2022-12-11T08:08:04;15.30;;;10.30;;
1382;SDS011;685;47.196;11.880;2022-12-11T08:10:31;13.73;;;10.10;;
1382;SDS011;685;47.196;11.880;2022-12-11T08:12:58;18.57;;;10.83;;
1382;SDS011;685;47.196;11.880;2022-12-11T08:15:24;13.73;;;8.87;;
1382;SDS011;685;47.196;11.880;2022-12-11T08:17:51;14.57;;;8.43;;
1382;SDS011;685;47.196;11.880;2022-12-11T08:20:19;15.10;;;9.67;;
1382;SDS011;685;47.196;11.880;2022-12-11T08:22:46;13.93;;;9.70;;
1382;SDS011;685;47.196;11.880;2022-12-11T08:25:14;12.70;;;9.70;;
1382;SDS011;685;47.196;11.880;2022-12-11T08:27:41;13.07;;;9.17;;
1382;SDS011;685;47.196;11.880;2022-12-11T08:30:08;12.43;;;10.67;;
1382;SDS011;685;47.196;11.880;2022-12-11T08:32:36;14.67;;;12.13;;
1382;SDS011;685;47.196;11.880;2022-12-11T08:35:03;19.27;;;12.53;;
1382;SDS011;685;47.196;11.880;2022-12-11T08:37:32;17.60;;;11.70;;
1382;SDS011;685;47.196;11.880;2022-12-11T08:39:59;16.43;;;11.13;;
1382;SDS011;685;47.196;11.880;2022-12-11T08:42:26;20.07;;;13.93;;
1382;SDS011;685;47.196;11.880;2022-12-11T08:44:53;26.30;;;17.00;;
1382;SDS011;685;47.196;11.880;2022-12-11T08:47:19;18.60;;;10.30;;
1382;SDS011;685;47.196;11.880;2022-12-11T08:49:47;13.77;;;9.60;;
1382;SDS011;685;47.196;11.880;2022-12-11T08:52:14;19.33;;;11.60;;
1382;SDS011;685;47.196;11.880;2022-12-11T08:54:42;15.23;;;8.93;;
1382;SDS011;685;47.196;11.880;2022-12-11T08:57:08;16.70;;;11.13;;
1382;SDS011;685;47.196;11.880;2022-12-11T08:59:35;13.10;;;9.50;;
1382;SDS011;685;47.196;11.880;2022-12-11T09:02:02;21.73;;;11.17;;
1382;SDS011;685;47.196;11.880;2022-12-11T09:04:29;11.93;;;9.50;;
1382;SDS011;685;47.196;11.880;2022-12-11T09:06:56;14.60;;;8.70;;
1382;SDS011;685;47.196;11.880;2022-12-11T09:09:23;14.73;;;10.80;;
1382;SDS011;685;47.196;11.880;2022-12-11T09:11:51;14.77;;;10.17;;
1382;SDS011;685;47.196;11.880;2022-12-11T09:14:18;14.47;;;8.83;;
1382;SDS011;685;47.196;11.880;2022-12-11T09:16:45;15.57;;;9.63;;
1382;SDS011;685;47.196;11.880;2022-12-11T09:19:13;16.47;;;10.13;;
1382;SDS011;685;47.196;11.880;2022-12-11T09:21:40;18.30;;;10.80;;
1382;SDS011;685;47.196;11.880;2022-12-11T09:24:08;14.73;;;11.10;;
1382;SDS011;685;47.196;11.880;2022-12-11T09:26:37;14.40;;;9.20;;
1382;SDS011;685;47.196;11.880;2022-12-11T09:29:06;14.47;;;9.53;;
1382;SDS011;685;47.196;11.880;2022-12-11T09:31:34;14.07;;;10.60;;
1382;SDS011;685;47.196;11.880;2022-12-11T09:34:02;15.43;;;11.27;;
1382;SDS011;685;47.196;11.880;2022-12-11T09:36:31;15.93;;;10.80;;
1382;SDS011;685;47.196;11.880;2022-12-11T09:38:58;18.50;;;12.87;;
1382;SDS011;685;47.196;11.880;2022-12-11T09:41:31;14.67;;;10.40;;
1382;SDS011;685;47.196;11.880;2022-12-11T09:44:11;12.07;;;10.43;;
1382;SDS011;685;47.196;11.880;2022-12-11T09:46:45;16.67;;;10.60;;
1382;SDS011;685;47.196;11.880;2022-12-11T09:49:17;14.40;;;10.53;;
1382;SDS011;685;47.196;11.880;2022-12-11T09:51:50;18.77;;;10.03;;
1382;SDS011;685;47.196;11.880;2022-12-11T09:54:25;14.40;;;9.77;;
1382;SDS011;685;47.196;11.880;2022-12-11T09:56:55;13.73;;;10.00;;
1382;SDS011;685;47.196;11.880;2022-12-11T09:59:31;12.93;;;10.13;;
1382;SDS011;685;47.196;11.880;2022-12-11T10:02:12;12.80;;;9.63;;
1382;SDS011;685;47.196;11.880;2022-12-11T10:04:49;19.53;;;13.17;;
1382;SDS011;685;47.196;11.880;2022-12-11T10:07:29;13.73;;;8.40;;
1382;SDS011;685;47.196;11.880;2022-12-11T10:10:02;15.40;;;10.77;;
1382;SDS011;685;47.196;11.880;2022-12-11T10:12:41;9.13;;;8.00;;
1382;SDS011;685;47.196;11.880;2022-12-11T10:15:25;13.47;;;10.63;;
1382;SDS011;685;47.196;11.880;2022-12-11T10:18:00;11.20;;;8.37;;
1382;SDS011;685;47.196;11.880;2022-12-11T10:20:35;10.67;;;8.70;;
1382;SDS011;685;47.196;11.880;2022-12-11T10:23:04;14.47;;;9.80;;
1382;SDS011;685;47.196;11.880;2022-12-11T10:25:34;9.70;;;7.87;;
1382;SDS011;685;47.196;11.880;2022-12-11T10:28:07;19.33;;;11.00;;
1382;SDS011;685;47.196;11.880;2022-12-11T10:30:39;13.47;;;8.10;;
1382;SDS011;685;47.196;11.880;2022-12-11T10:33:14;11.97;;;8.70;;
1382;SDS011;685;47.196;11.880;2022-12-11T10:35:47;11.73;;;7.20;;
1382;SDS011;685;47.196;11.880;2022-12-11T10:38:19;9.60;;;6.43;;
1382;SDS011;685;47.196;11.880;2022-12-11T10:40:49;13.90;;;9.53;;
1382;SDS011;685;47.196;11.880;2022-12-11T10:43:17;19.70;;;11.67;;
1382;SDS011;685;47.196;11.880;2022-12-11T10:45:52;10.43;;;8.47;;
1382;SDS011;685;47.196;11.880;2022-12-11T10:48:20;9.13;;;7.00;;
1382;SDS011;685;47.196;11.880;2022-12-11T10:50:54;8.13;;;6.47;;
1382;SDS011;685;47.196;11.880;2022-12-11T10:53:23;8.57;;;6.37;;
1382;SDS011;685;47.196;11.880;2022-12-11T10:55:51;9.33;;;6.77;;
1382;SDS011;685;47.196;11.880;2022-12-11T10:58:19;7.93;;;6.70;;
1382;SDS011;685;47.196;11.880;2022-12-11T11:00:48;9.87;;;6.17;;
1382;SDS011;685;47.196;11.880;2022-12-11T11:03:30;9.10;;;6.90;;
1382;SDS011;685;47.196;11.880;2022-12-11T11:06:01;8.33;;;6.57;;
1382;SDS011;685;47.196;11.880;2022-12-11T11:08:36;11.20;;;7.73;;
1382;SDS011;685;47.196;11.880;2022-12-11T11:11:05;12.23;;;6.33;;
1382;SDS011;685;47.196;11.880;2022-12-11T11:13:33;8.90;;;7.10;;
1382;SDS011;685;47.196;11.880;2022-12-11T11:16:00;5.87;;;4.50;;
1382;SDS011;685;47.196;11.880;2022-12-11T11:18:31;7.40;;;5.57;;
1382;SDS011;685;47.196;11.880;2022-12-11T11:20:59;7.93;;;5.87;;
1382;SDS011;685;47.196;11.880;2022-12-11T11:23:27;7.93;;;5.00;;
1382;SDS011;685;47.196;11.880;2022-12-11T11:25:55;7.20;;;6.23;;
1382;SDS011;685;47.196;11.880;2022-12-11T11:28:24;6.20;;;5.50;;
1382;SDS011;685;47.196;11.880;2022-12-11T11:30:54;8.00;;;5.13;;
1382;SDS011;685;47.196;11.880;2022-12-11T11:33:25;6.20;;;5.20;;
1382;SDS011;685;47.196;11.880;2022-12-11T11:35:53;8.17;;;6.20;;
1382;SDS011;685;47.196;11.880;2022-12-11T11:38:22;7.20;;;5.10;;
1382;SDS011;685;47.196;11.880;2022-12-11T11:40:53;8.87;;;6.07;;
1382;SDS011;685;47.196;11.880;2022-12-11T11:43:27;7.90;;;5.63;;
1382;SDS011;685;47.196;11.880;2022-12-11T11:46:02;12.13;;;8.67;;
1382;SDS011;685;47.196;11.880;2022-12-11T11:48:34;9.53;;;6.67;;
1382;SDS011;685;47.196;11.880;2022-12-11T11:51:06;8.90;;;7.13;;
1382;SDS011;685;47.196;11.880;2022-12-11T11:53:40;11.83;;;7.83;;
1382;SDS011;685;47.196;11.880;2022-12-11T11:56:15;9.97;;;7.77;;
1382;SDS011;685;47.196;11.880;2022-12-11T11:58:48;8.63;;;7.20;;
1382;SDS011;685;47.196;11.880;2022-12-11T12:01:20;10.73;;;7.60;;
1382;SDS011;685;47.196;11.880;2022-12-11T12:03:49;10.50;;;7.77;;
1382;SDS011;685;47.196;11.880;2022-12-11T12:06:19;8.63;;;6.03;;
1382;SDS011;685;47.196;11.880;2022-12-11T12:08:58;8.83;;;5.50;;
1382;SDS011;685;47.196;11.880;2022-12-11T12:11:33;8.50;;;6.47;;
1382;SDS011;685;47.196;11.880;2022-12-11T12:14:09;8.77;;;7.07;;
1382;SDS011;685;47.196;11.880;2022-12-11T12:16:42;11.30;;;6.80;;
1382;SDS011;685;47.196;11.880;2022-12-11T12:19:27;8.23;;;7.20;;
1382;SDS011;685;47.196;11.880;2022-12-11T12:22:04;10.07;;;7.90;;
1382;SDS011;685;47.196;11.880;2022-12-11T12:24:40;12.80;;;7.80;;
1382;SDS011;685;47.196;11.880;2022-12-11T12:27:17;11.57;;;8.33;;
1382;SDS011;685;47.196;11.880;2022-12-11T12:29:51;9.30;;;7.40;;
1382;SDS011;685;47.196;11.880;2022-12-11T12:32:27;10.37;;;7.53;;
1382;SDS011;685;47.196;11.880;2022-12-11T12:35:05;9.23;;;6.60;;
1382;SDS011;685;47.196;11.880;2022-12-11T12:37:44;9.77;;;7.03;;
1382;SDS011;685;47.196;11.880;2022-12-11T12:40:19;21.87;;;12.40;;
1382;SDS011;685;47.196;11.880;2022-12-11T12:42:57;12.90;;;8.13;;
1382;SDS011;685;47.196;11.880;2022-12-11T12:45:31;8.33;;;7.30;;
1382;SDS011;685;47.196;11.880;2022-12-11T12:48:03;14.90;;;7.73;;
1382;SDS011;685;47.196;11.880;2022-12-11T12:50:33;11.33;;;7.50;;
1382;SDS011;685;47.196;11.880;2022-12-11T12:53:04;7.37;;;6.60;;
1382;SDS011;685;47.196;11.880;2022-12-11T12:55:33;7.03;;;6.13;;
1382;SDS011;685;47.196;11.880;2022-12-11T12:58:01;9.67;;;7.00;;
1382;SDS011;685;47.196;11.880;2022-12-11T13:00:31;8.20;;;7.30;;
1382;SDS011;685;47.196;11.880;2022-12-11T13:03:01;8.10;;;6.20;;
1382;SDS011;685;47.196;11.880;2022-12-11T13:05:39;9.63;;;7.30;;
1382;SDS011;685;47.196;11.880;2022-12-11T13:08:09;7.13;;;6.37;;
1382;SDS011;685;47.196;11.880;2022-12-11T13:10:37;9.90;;;7.90;;
1382;SDS011;685;47.196;11.880;2022-12-11T13:16:04;9.80;;;6.53;;
1382;SDS011;685;47.196;11.880;2022-12-11T13:18:33;10.30;;;8.00;;
1382;SDS011;685;47.196;11.880;2022-12-11T13:21:02;9.63;;;6.50;;
1382;SDS011;685;47.196;11.880;2022-12-11T13:23:44;10.83;;;8.03;;
1382;SDS011;685;47.196;11.880;2022-12-11T13:26:12;9.03;;;6.97;;
1382;SDS011;685;47.196;11.880;2022-12-11T13:28:47;9.40;;;7.20;;
1382;SDS011;685;47.196;11.880;2022-12-11T13:31:32;8.40;;;6.70;;
1382;SDS011;685;47.196;11.880;2022-12-11T13:34:12;8.43;;;6.93;;
1382;SDS011;685;47.196;11.880;2022-12-11T13:36:46;8.47;;;6.80;;
1382;SDS011;685;47.196;11.880;2022-12-11T13:39:15;7.57;;;6.03;;
1382;SDS011;685;47.196;11.880;2022-12-11T13:41:44;10.20;;;7.00;;
1382;SDS011;685;47.196;11.880;2022-12-11T13:44:14;10.07;;;6.73;;
1382;SDS011;685;47.196;11.880;2022-12-11T13:46:46;9.57;;;7.00;;
1382;SDS011;685;47.196;11.880;2022-12-11T13:49:23;10.13;;;7.00;;
1382;SDS011;685;47.196;11.880;2022-12-11T13:51:54;9.90;;;6.13;;
1382;SDS011;685;47.196;11.880;2022-12-11T13:54:22;10.63;;;6.70;;
1382;SDS011;685;47.196;11.880;2022-12-11T13:56:58;9.70;;;6.77;;
1382;SDS011;685;47.196;11.880;2022-12-11T13:59:28;13.87;;;7.67;;
1382;SDS011;685;47.196;11.880;2022-12-11T14:01:57;9.70;;;7.57;;
1382;SDS011;685;47.196;11.880;2022-12-11T14:04:28;10.30;;;7.50;;
1382;SDS011;685;47.196;11.880;2022-12-11T14:06:58;10.03;;;7.20;;
1382;SDS011;685;47.196;11.880;2022-12-11T14:09:26;10.80;;;7.33;;
1382;SDS011;685;47.196;11.880;2022-12-11T14:11:53;11.23;;;8.33;;
1382;SDS011;685;47.196;11.880;2022-12-11T14:14:23;10.63;;;7.30;;
1382;SDS011;685;47.196;11.880;2022-12-11T14:16:57;13.60;;;8.37;;
1382;SDS011;685;47.196;11.880;2022-12-11T14:19:25;12.00;;;9.37;;
1382;SDS011;685;47.196;11.880;2022-12-11T14:21:54;10.43;;;8.53;;
1382;SDS011;685;47.196;11.880;2022-12-11T14:24:23;9.60;;;8.00;;
1382;SDS011;685;47.196;11.880;2022-12-11T14:26:51;13.10;;;8.10;;
1382;SDS011;685;47.196;11.880;2022-12-11T14:29:23;16.60;;;9.13;;
1382;SDS011;685;47.196;11.880;2022-12-11T14:31:52;11.23;;;8.33;;
1382;SDS011;685;47.196;11.880;2022-12-11T14:34:20;9.60;;;7.33;;
1382;SDS011;685;47.196;11.880;2022-12-11T14:36:50;11.10;;;8.00;;
1382;SDS011;685;47.196;11.880;2022-12-11T14:39:19;9.30;;;6.67;;
1382;SDS011;685;47.196;11.880;2022-12-11T14:41:55;11.23;;;7.43;;
1382;SDS011;685;47.196;11.880;2022-12-11T14:44:26;11.23;;;7.60;;
1382;SDS011;685;47.196;11.880;2022-12-11T14:46:56;13.03;;;7.57;;
1382;SDS011;685;47.196;11.880;2022-12-11T14:49:27;9.30;;;6.83;;
1382;SDS011;685;47.196;11.880;2022-12-11T14:51:58;11.20;;;8.27;;
1382;SDS011;685;47.196;11.880;2022-12-11T14:54:28;12.37;;;9.03;;
1382;SDS011;685;47.196;11.880;2022-12-11T14:56:58;11.73;;;8.63;;
1382;SDS011;685;47.196;11.880;2022-12-11T14:59:26;14.60;;;9.93;;
1382;SDS011;685;47.196;11.880;2022-12-11T15:01:57;14.47;;;8.37;;
1382;SDS011;685;47.196;11.880;2022-12-11T15:04:27;13.20;;;8.90;;
1382;SDS011;685;47.196;11.880;2022-12-11T15:06:55;11.03;;;9.60;;
1382;SDS011;685;47.196;11.880;2022-12-11T15:09:28;10.67;;;9.57;;
1382;SDS011;685;47.196;11.880;2022-12-11T15:12:06;10.17;;;8.40;;
1382;SDS011;685;47.196;11.880;2022-12-11T15:14:38;13.30;;;7.40;;
1382;SDS011;685;47.196;11.880;2022-12-11T15:17:11;13.53;;;9.13;;
1382;SDS011;685;47.196;11.880;2022-12-11T15:19:39;12.70;;;9.60;;
1382;SDS011;685;47.196;11.880;2022-12-11T15:22:07;10.80;;;8.23;;
1382;SDS011;685;47.196;11.880;2022-12-11T15:24:37;15.27;;;11.23;;